TML weather

Tamale Airport
Tamale, Northern Region, Ghana

Public forecast

Using degrees Celsius for public forecast. Weather courtesy of forecast.io.

METAR (pilot weather report)

Report is more than 6 hours old.

Retrieved 2019/02/02 17:00 UTC (1 month ago):

DGLE 021700Z 00000KT 8000 36/18 QNH1009 NOSIG

TAF (pilot weather forecast)

Forecast is more than 6 hours old.

Closest forecast is Niamtougou International Airport, 116.4 nm (215.5 km) E. Retrieved 2019/03/18 06:56 UTC (10 hours ago):

TAF DXNG 180500Z 1806/1906 VRB05KT 8000 FEW010 PROB30 TEMPO 1815/1824 4000 TSRA BKN010 FEW016CB